Sanibel, FL

10:37 PM EDT on August 27, 2015 (GMT -0400)
IWA on Sanibel Island | | Change Station
CLOSE
Current Station
Personal Weather Station
Location: Sanibel, FL
Elevation: 7 ft
Nearby Weather Stations

Elev 7 ft 26.44 °N, 82.11 °W | Updated 49 seconds ago

Mostly Cloudy
Mostly Cloudy
79.8 °F
Feels Like 85 °F
N
2.0
Wind Variable Wind from NNE
Gusts 3.0 mph

Today
High -- | Low -- °F
--% Chance of Precip.
Yesterday
High -- | Low -- °F
Precip. -- in
7:05 AM 7:53 PM
Waxing Gibbous, 96% visible
Pressure 29.98 in
Visibility 10.0 miles
Clouds Clear
Heat Index 85 °F
Dew Point 77 °F
Humidity 92%
Rainfall 0.68 in
Snow Depth Not available.
UV 0 out of 12
Pollen 3.40 out of 12
Air Quality Not available.
Flu Activity Not available.
METAR KFMY 280153Z AUTO 10005KT 10SM CLR 26/23 A2997 RMK AO2 SLP150 T02560233
Pressure 29.98 in
Visibility 10.0 miles
Clouds Clear
Heat Index 85 °F
Dew Point 77 °F
Humidity 92%
Rainfall 0.68 in
Snow Depth Not available.
UV 0 out of 12
Pollen 3.40 out of 12
Air Quality Not available.
Flu Activity Not available.
METAR KFMY 280153Z AUTO 10005KT 10SM CLR 26/23 A2997 RMK AO2 SLP150 T02560233
Tropical Storm Erika remains unorganized as it travels through the northeast Caribbean Sea. The storm has already dumped 5-10 inches of rain on the Lesser Antilles, with more rain anticipated for Puerto Rico and Hispaniola. This will be much-needed rain for those islands. Erika is not forecast to reach hurricane strength until Monday when it curves northward along the east coast of Florida. Follow the live blog

10-Day Weather Forecast

×

Almanac

Astronomy

Aug. 27, 2015 Rise Set
Actual Time
Civil Twilight
Nautical Twilight
Astronomical Twilight
Moon
Length of Visible Light
Length of Day
Tomorrow will be .
, % of the Moon is Illuminated

Today's Extremes

State Highs State Lows

Community

WunderPhotos

Upload Photos

1,850,301 photos uploaded!

WunderBlogs® & News

Nearby

Air Quality

  Air Quality AQ Index Pollutant
Not available.

Snow Depth

Station Depth Elevation

Earthquake Activity

City Distance Mag. Time & Date
Minimum magnitude displayed is 2.5.

Coastal Water Temperatures

Place Temperature

Stations

Nearby Weather Stations

Station Location Temp. Windchill Dew Point Humidity Wind Precip. Elev Updated Type